createdAt,value
2023-04-02T00:00:34.219Z,996.9
2023-04-02T00:05:07.461Z,996.8
2023-04-02T00:10:06.755Z,996.9
2023-04-02T00:15:06.619Z,996.9
2023-04-02T00:20:04.246Z,996.9
2023-04-02T00:25:04.011Z,996.9
2023-04-02T00:30:03.298Z,997
2023-04-02T00:35:02.925Z,997
2023-04-02T00:40:02.767Z,997.1
2023-04-02T00:45:02.156Z,997.1
2023-04-02T00:50:02.334Z,997.1
2023-04-02T00:55:02.035Z,997.1
2023-04-02T01:04:11.336Z,997.1
2023-04-02T01:09:12.360Z,997.1
2023-04-02T01:14:12.676Z,997.1
2023-04-02T01:19:11.709Z,997.1
2023-04-02T01:24:09.316Z,997.1
2023-04-02T01:29:08.438Z,997.1
2023-04-02T01:34:08.121Z,997.2
2023-04-02T01:39:09.933Z,997.2
2023-04-02T01:44:06.063Z,997.2
2023-04-02T01:49:06.341Z,997.3
2023-04-02T01:54:05.151Z,997.3
2023-04-02T01:59:04.717Z,997.3
2023-04-02T02:04:02.302Z,997.3
2023-04-02T02:09:02.084Z,997.4
2023-04-02T02:14:03.153Z,997.5
2023-04-02T02:19:00.467Z,997.6
2023-04-02T02:23:59.432Z,997.6
2023-04-02T02:28:59.050Z,997.7
2023-04-02T02:33:58.619Z,997.7
2023-04-02T02:38:58.444Z,997.7
2023-04-02T02:43:59.162Z,997.8
2023-04-02T02:48:55.586Z,997.8
2023-04-02T02:53:55.862Z,997.8
2023-04-02T02:58:55.272Z,997.8
2023-04-02T03:00:41.636Z,997.9
2023-04-02T03:05:16.295Z,997.8
2023-04-02T03:10:16.315Z,997.9
2023-04-02T03:15:15.837Z,997.9
2023-04-02T03:20:16.702Z,998
2023-04-02T03:25:13.481Z,998.1
2023-04-02T03:30:13.610Z,998.2
2023-04-02T03:35:13.227Z,998.2
2023-04-02T03:40:13.248Z,998.3
2023-04-02T03:45:10.467Z,998.3
2023-04-02T03:50:10.149Z,998.3
2023-04-02T03:59:18.426Z,998.4
2023-04-02T04:09:17.318Z,998.4
2023-04-02T04:14:17.251Z,998.5
2023-04-02T04:24:18.480Z,998.5
2023-04-02T04:29:14.800Z,998.6
2023-04-02T04:39:15.474Z,998.7
2023-04-02T04:44:14.818Z,998.8
2023-04-02T04:59:14.129Z,999.1
2023-04-02T05:09:11.567Z,999.1
2023-04-02T05:14:11.838Z,999.2
2023-04-02T05:24:26.096Z,999.4
2023-04-02T05:29:08.586Z,999.4
2023-04-02T05:39:07.489Z,999.6
2023-04-02T05:44:07.208Z,999.6
2023-04-02T05:54:06.366Z,999.8
2023-04-02T05:59:07.405Z,999.8
2023-04-02T06:04:06.468Z,999.9
2023-04-02T06:09:07.353Z,1000
2023-04-02T06:14:04.539Z,1000
2023-04-02T06:19:04.413Z,1000.1
2023-04-02T06:24:03.775Z,1000.2
2023-04-02T06:29:03.526Z,1000.2
2023-04-02T06:34:03.020Z,1000.3
2023-04-02T06:39:03.156Z,1000.4
2023-04-02T06:44:02.944Z,1000.5
2023-04-02T06:49:03.451Z,1000.5
2023-04-02T06:54:00.105Z,1000.6
2023-04-02T06:59:00.040Z,1000.7
2023-04-02T07:00:47.604Z,1000.7
2023-04-02T07:40:17.757Z,1001.2
2023-04-02T07:50:18.908Z,1001.3
2023-04-02T08:59:16.020Z,1002.1
2023-04-02T09:04:17.670Z,1002.2
2023-04-02T09:09:13.916Z,1002.2
2023-04-02T09:14:14.220Z,1002.3
2023-04-02T09:19:13.622Z,1002.4
2023-04-02T09:24:14.635Z,1002.3
2023-04-02T09:29:11.796Z,1002.4
2023-04-02T09:34:11.845Z,1002.4
2023-04-02T09:39:10.657Z,1002.5
2023-04-02T09:44:12.127Z,1002.5
2023-04-02T09:49:07.946Z,1002.5
2023-04-02T09:54:08.241Z,1002.5
2023-04-02T09:59:07.790Z,1002.5
2023-04-02T10:04:08.183Z,1002.5
2023-04-02T10:09:05.679Z,1002.7
2023-04-02T10:14:05.357Z,1002.8
2023-04-02T10:19:04.731Z,1002.8
2023-04-02T10:24:04.183Z,1002.9
2023-04-02T10:29:06.378Z,1002.9
2023-04-02T10:34:03.343Z,1003
2023-04-02T10:39:03.375Z,1003
2023-04-02T10:44:09.415Z,1003.1
2023-04-02T10:49:04.282Z,1003.2
2023-04-02T10:54:00.672Z,1003.2
2023-04-02T10:59:00.434Z,1003.3
2023-04-02T11:04:00.233Z,1003.3
2023-04-02T11:09:00.106Z,1003.4
2023-04-02T11:13:58.101Z,1003.4
2023-04-02T11:18:58.397Z,1003.4
2023-04-02T11:23:58.495Z,1003.4
2023-04-02T11:28:59.933Z,1003.4
2023-04-02T11:34:00.845Z,1003.4
2023-04-02T11:39:01.828Z,1003.4
2023-04-02T11:43:56.130Z,1003.3
2023-04-02T11:48:56.012Z,1003.4
2023-04-02T11:53:55.359Z,1003.4
2023-04-02T11:58:55.488Z,1003.6
2023-04-02T12:00:43.612Z,1003.6
2023-04-02T12:40:09.511Z,1004.4
2023-04-02T13:59:10.199Z,1005.5
2023-04-02T14:04:10.344Z,1005.6
2023-04-02T14:09:09.189Z,1005.6
2023-04-02T14:14:09.108Z,1005.7
2023-04-02T14:19:08.038Z,1005.8
2023-04-02T14:24:08.464Z,1005.9
2023-04-02T14:29:07.926Z,1006
2023-04-02T14:34:07.397Z,1006.1
2023-04-02T14:39:05.021Z,1006.1
2023-04-02T14:44:58.798Z,1006.2
2023-04-02T14:49:04.369Z,1006.2
2023-04-02T14:54:03.847Z,1006.3
2023-04-02T14:59:03.643Z,1006.4
2023-04-02T15:04:03.766Z,1006.4
2023-04-02T15:09:19.579Z,1006.5
2023-04-02T15:14:00.664Z,1006.6
2023-04-02T15:19:01.249Z,1006.7
2023-04-02T15:24:00.129Z,1006.8
2023-04-02T15:29:00.368Z,1006.9
2023-04-02T15:33:58.196Z,1006.9
2023-04-02T15:38:57.379Z,1007
2023-04-02T15:43:57.149Z,1007
2023-04-02T15:48:56.652Z,1007.1
2023-04-02T15:53:56.425Z,1007.1
2023-04-02T15:58:55.452Z,1007.2
2023-04-02T16:00:42.912Z,1007.2
2023-04-02T16:05:17.023Z,1007.3
2023-04-02T16:15:14.713Z,1007.5
2023-04-02T16:20:15.041Z,1007.6
2023-04-02T16:25:13.405Z,1007.6
2023-04-02T16:30:16.122Z,1007.7
2023-04-02T16:35:43.368Z,1007.8
2023-04-02T16:40:13.280Z,1007.9
2023-04-02T16:45:13.037Z,1008
2023-04-02T16:50:13.359Z,1008.1
2023-04-02T17:04:19.884Z,1008.3
2023-04-02T17:09:17.512Z,1008.4
2023-04-02T17:14:15.117Z,1008.4
2023-04-02T17:24:17.767Z,1008.6
2023-04-02T17:29:13.713Z,1008.7
2023-04-02T18:04:09.467Z,1009.5
2023-04-02T18:09:09.447Z,1009.6
2023-04-02T18:44:07.113Z,1010.5
2023-04-02T18:54:04.898Z,1010.7
2023-04-02T19:04:03.193Z,1010.9
2023-04-02T19:09:01.548Z,1011.1
2023-04-02T19:14:01.054Z,1011.2
2023-04-02T19:18:59.162Z,1011.3
2023-04-02T19:28:58.394Z,1011.6
2023-04-02T19:33:58.024Z,1011.7
2023-04-02T19:38:57.648Z,1011.8
2023-04-02T19:43:55.429Z,1011.9
2023-04-02T19:48:54.765Z,1012
2023-04-02T19:53:54.556Z,1012
2023-04-02T19:58:54.594Z,1012
2023-04-02T20:00:55.159Z,1012.1
2023-04-02T20:05:15.151Z,1012.2
2023-04-02T20:10:14.432Z,1012.3
2023-04-02T20:20:13.142Z,1012.4
2023-04-02T20:25:12.302Z,1012.5
2023-04-02T20:30:11.919Z,1012.6
2023-04-02T20:35:11.532Z,1012.8
2023-04-02T20:40:09.207Z,1012.8
2023-04-02T20:45:08.648Z,1012.9
2023-04-02T20:50:07.972Z,1012.9
2023-04-02T20:55:08.724Z,1013
2023-04-02T21:59:15.823Z,1013.3
2023-04-02T22:04:15.656Z,1013.3
2023-04-02T22:09:14.882Z,1013.3
2023-04-02T22:14:14.652Z,1013.3
2023-04-02T22:34:13.542Z,1013.5
2023-04-02T22:39:12.759Z,1013.5
2023-04-02T22:44:12.375Z,1013.5
2023-04-02T22:49:11.496Z,1013.5
2023-04-02T22:54:11.169Z,1013.5
2023-04-02T22:59:11.166Z,1013.6
2023-04-02T23:04:10.720Z,1013.6
2023-04-02T23:09:12.232Z,1013.6
2023-04-02T23:14:08.460Z,1013.5
2023-04-02T23:19:07.985Z,1013.5
2023-04-02T23:24:07.801Z,1013.5
2023-04-02T23:29:07.486Z,1013.6
2023-04-02T23:34:05.361Z,1013.6
2023-04-02T23:39:04.742Z,1013.6
2023-04-02T23:44:04.234Z,1013.6
2023-04-02T23:49:03.902Z,1013.6
2023-04-02T23:54:03.773Z,1013.5
2023-04-02T23:59:03.527Z,1013.5
